createdAt,value
2023-05-12T00:01:31.975Z,11.70
2023-05-12T00:03:58.967Z,11.70
2023-05-12T00:06:26.199Z,11.80
2023-05-12T00:08:52.807Z,11.80
2023-05-12T00:11:19.440Z,11.80
2023-05-12T00:13:46.115Z,11.80
2023-05-12T00:16:13.431Z,11.80
2023-05-12T00:18:40.083Z,11.80
2023-05-12T00:21:08.654Z,11.70
2023-05-12T00:23:35.278Z,11.70
2023-05-12T00:26:01.866Z,11.70
2023-05-12T00:28:28.500Z,11.70
2023-05-12T00:30:55.889Z,11.70
2023-05-12T00:33:22.562Z,11.90
2023-05-12T00:35:49.108Z,11.70
2023-05-12T00:38:15.732Z,11.70
2023-05-12T00:40:42.344Z,11.70
2023-05-12T00:43:09.039Z,11.70
2023-05-12T00:45:35.925Z,11.70
2023-05-12T00:48:03.539Z,11.70
2023-05-12T00:50:30.353Z,11.70
2023-05-12T00:52:58.088Z,11.70
2023-05-12T00:55:25.549Z,11.60
2023-05-12T00:57:52.242Z,11.70
2023-05-12T01:00:19.115Z,11.70
2023-05-12T01:02:46.113Z,11.70
2023-05-12T01:05:13.004Z,11.60
2023-05-12T01:07:39.596Z,11.60
2023-05-12T01:10:16.715Z,11.60
2023-05-12T01:12:43.322Z,11.60
2023-05-12T01:15:10.316Z,11.60
2023-05-12T01:17:37.404Z,11.60
2023-05-12T01:20:04.903Z,11.70
2023-05-12T01:22:33.599Z,11.60
2023-05-12T01:25:04.727Z,11.60
2023-05-12T01:27:31.834Z,11.70
2023-05-12T01:30:00.388Z,11.60
2023-05-12T01:32:27.407Z,11.60
2023-05-12T01:34:53.994Z,11.60
2023-05-12T01:37:20.663Z,11.70
2023-05-12T01:39:47.250Z,11.60
2023-05-12T01:42:13.950Z,11.60
2023-05-12T01:44:40.734Z,11.60
2023-05-12T01:47:09.932Z,11.60
2023-05-12T01:49:39.618Z,11.60
2023-05-12T01:52:06.421Z,11.60
2023-05-12T01:54:33.190Z,11.60
2023-05-12T01:56:59.757Z,11.50
2023-05-12T01:59:26.341Z,11.50
2023-05-12T02:01:53.017Z,11.50
2023-05-12T02:04:19.705Z,11.60
2023-05-12T02:06:46.252Z,10.70
2023-05-12T02:09:13.271Z,11.50
2023-05-12T02:11:39.879Z,11.50
2023-05-12T02:14:06.755Z,11.60
2023-05-12T02:16:33.357Z,11.60
2023-05-12T02:18:59.949Z,11.60
2023-05-12T02:21:28.009Z,11.50
2023-05-12T02:23:56.105Z,11.60
2023-05-12T02:26:22.874Z,11.60
2023-05-12T02:28:49.723Z,11.60
2023-05-12T02:31:16.314Z,11.60
2023-05-12T02:33:43.121Z,11.50
2023-05-12T02:36:09.681Z,11.50
2023-05-12T02:38:36.397Z,11.50
2023-05-12T02:41:02.994Z,11.50
2023-05-12T02:43:29.557Z,11.50
2023-05-12T02:45:56.120Z,11.60
2023-05-12T02:48:22.709Z,11.60
2023-05-12T02:50:49.428Z,11.60
2023-05-12T02:53:16.116Z,11.70
2023-05-12T02:55:42.737Z,11.60
2023-05-12T02:58:10.317Z,11.60
2023-05-12T03:00:36.913Z,11.60
2023-05-12T03:03:03.609Z,11.60
2023-05-12T03:05:30.814Z,11.60
2023-05-12T03:07:57.483Z,11.60
2023-05-12T03:10:24.121Z,11.60
2023-05-12T03:12:50.807Z,11.60
2023-05-12T03:15:17.478Z,11.50
2023-05-12T03:17:44.184Z,11.50
2023-05-12T03:20:11.030Z,11.60
2023-05-12T03:22:37.755Z,11.60
2023-05-12T03:25:06.038Z,11.60
2023-05-12T03:27:33.054Z,11.50
2023-05-12T03:30:05.076Z,11.60
2023-05-12T03:32:31.851Z,11.60
2023-05-12T03:34:58.644Z,11.60
2023-05-12T03:37:25.244Z,11.60
2023-05-12T03:39:51.848Z,11.60
2023-05-12T03:42:19.199Z,11.50
2023-05-12T03:44:45.839Z,11.60
2023-05-12T03:47:12.950Z,11.70
2023-05-12T03:49:39.679Z,11.50
2023-05-12T03:52:06.605Z,11.60
2023-05-12T03:54:33.215Z,11.50
2023-05-12T03:56:59.936Z,11.60
2023-05-12T03:59:27.013Z,11.50
2023-05-12T04:01:53.682Z,11.50
2023-05-12T04:04:20.729Z,11.60
2023-05-12T04:06:47.307Z,11.60
2023-05-12T04:09:13.869Z,11.60
2023-05-12T04:11:40.479Z,11.60
2023-05-12T04:14:07.208Z,11.60
2023-05-12T04:16:35.512Z,11.70
2023-05-12T04:19:03.641Z,11.60
2023-05-12T04:21:30.758Z,11.60
2023-05-12T04:23:57.690Z,11.70
2023-05-12T04:26:24.263Z,11.70
2023-05-12T04:28:50.935Z,11.70
2023-05-12T04:31:17.564Z,11.70
2023-05-12T04:33:46.402Z,11.70
2023-05-12T04:36:14.155Z,11.70
2023-05-12T04:38:41.646Z,11.70
2023-05-12T04:41:08.397Z,11.80
2023-05-12T04:46:04.812Z,11.70
2023-05-12T04:48:31.438Z,11.70
2023-05-12T04:51:01.592Z,11.70
2023-05-12T04:53:28.229Z,11.70
2023-05-12T04:55:56.567Z,11.70
2023-05-12T04:58:23.387Z,11.80
2023-05-12T05:00:50.165Z,11.80
2023-05-12T05:03:16.855Z,11.80
2023-05-12T05:05:43.549Z,11.80
2023-05-12T05:08:10.121Z,11.80
2023-05-12T05:10:36.687Z,11.90
2023-05-12T05:13:03.218Z,11.90
2023-05-12T05:15:29.764Z,11.90
2023-05-12T05:17:56.359Z,12.00
2023-05-12T05:20:27.823Z,12.00
2023-05-12T05:22:55.562Z,11.90
2023-05-12T05:25:22.288Z,12.00
2023-05-12T05:27:48.977Z,12.00
2023-05-12T05:30:15.537Z,12.10
2023-05-12T05:32:42.144Z,12.10
2023-05-12T05:35:09.035Z,12.10
2023-05-12T05:37:35.674Z,12.10
2023-05-12T05:40:02.467Z,12.20
2023-05-12T05:42:29.063Z,12.20
2023-05-12T05:44:56.300Z,12.30
2023-05-12T05:47:22.940Z,12.30
2023-05-12T05:49:49.559Z,12.30
2023-05-12T05:52:16.194Z,12.40
2023-05-12T05:54:42.758Z,12.50
2023-05-12T05:57:09.341Z,12.50
2023-05-12T05:59:35.895Z,12.50
2023-05-12T06:02:02.519Z,12.60
2023-05-12T06:04:29.318Z,12.50
2023-05-12T06:06:55.947Z,12.60
2023-05-12T06:09:22.711Z,12.60
2023-05-12T06:11:49.252Z,12.60
2023-05-12T06:14:15.827Z,12.70
2023-05-12T06:16:42.514Z,12.80
2023-05-12T06:19:09.405Z,12.50
2023-05-12T06:21:36.004Z,12.90
2023-05-12T06:24:03.587Z,12.90
2023-05-12T06:26:30.353Z,12.90
2023-05-12T06:28:56.864Z,13.00
2023-05-12T06:31:25.206Z,13.00
2023-05-12T06:33:51.870Z,13.10
2023-05-12T06:36:18.458Z,13.10
2023-05-12T06:38:45.035Z,13.10
2023-05-12T06:41:11.776Z,13.10
2023-05-12T06:43:38.345Z,13.10
2023-05-12T06:46:05.384Z,13.10
2023-05-12T06:48:31.948Z,13.10
2023-05-12T06:50:58.506Z,13.20
2023-05-12T06:53:25.701Z,13.30
2023-05-12T06:55:53.570Z,13.30
2023-05-12T06:58:22.120Z,13.30
2023-05-12T07:00:48.891Z,13.40
2023-05-12T07:03:15.714Z,13.40
2023-05-12T07:05:42.831Z,13.40
2023-05-12T07:08:09.488Z,13.40
2023-05-12T07:10:36.168Z,13.40
2023-05-12T07:13:02.732Z,13.40
2023-05-12T07:15:31.922Z,13.50
2023-05-12T07:17:59.271Z,13.40
2023-05-12T07:20:25.966Z,13.40
2023-05-12T07:22:54.662Z,13.60
2023-05-12T07:25:21.889Z,13.60
2023-05-12T07:27:49.196Z,13.60
2023-05-12T07:30:16.357Z,13.70
2023-05-12T07:32:43.260Z,13.70
2023-05-12T07:35:11.220Z,13.70
2023-05-12T07:37:38.023Z,13.80
2023-05-12T07:40:05.041Z,13.80
2023-05-12T07:42:31.730Z,13.90
2023-05-12T07:44:58.369Z,13.90
2023-05-12T07:47:25.311Z,13.90
2023-05-12T07:49:52.001Z,13.80
2023-05-12T07:52:18.744Z,13.90
2023-05-12T07:54:45.461Z,13.80
2023-05-12T07:57:12.139Z,13.90
2023-05-12T07:59:38.915Z,13.90
2023-05-12T08:02:05.567Z,14.10
2023-05-12T08:04:32.326Z,14.20
2023-05-12T08:06:58.874Z,14.30
2023-05-12T08:09:25.498Z,14.40
2023-05-12T08:11:52.089Z,14.50
2023-05-12T08:14:18.600Z,14.80
2023-05-12T08:16:46.463Z,15.60
2023-05-12T08:19:13.823Z,16.10
2023-05-12T08:21:40.628Z,16.40
2023-05-12T08:24:07.438Z,16.40
2023-05-12T08:26:34.092Z,16.50
2023-05-12T08:29:01.489Z,16.80
2023-05-12T08:31:28.225Z,17.00
2023-05-12T08:36:26.085Z,17.60
2023-05-12T08:38:52.688Z,17.80
2023-05-12T08:41:21.838Z,17.70
2023-05-12T08:43:52.257Z,17.60
2023-05-12T08:46:19.986Z,17.60
2023-05-12T08:48:47.461Z,17.70
2023-05-12T08:51:14.585Z,17.90
2023-05-12T08:53:42.205Z,17.90
2023-05-12T08:58:42.155Z,18.20
2023-05-12T09:01:11.436Z,18.00
2023-05-12T09:03:39.002Z,17.60
2023-05-12T09:06:06.366Z,17.30
2023-05-12T09:08:34.001Z,17.20
2023-05-12T09:11:00.795Z,16.90
2023-05-12T09:13:40.263Z,16.40
2023-05-12T09:16:09.808Z,16.20
2023-05-12T09:18:50.666Z,16.00
2023-05-12T09:21:17.392Z,15.80
2023-05-12T09:23:53.227Z,15.70
2023-05-12T09:26:21.046Z,16.00
2023-05-12T09:28:47.926Z,16.30
2023-05-12T09:31:22.943Z,16.50
2023-05-12T09:33:50.795Z,16.60
2023-05-12T09:36:21.361Z,16.70
2023-05-12T09:38:58.790Z,16.60
2023-05-12T09:41:25.775Z,16.50
2023-05-12T09:43:53.094Z,16.50
2023-05-12T09:46:19.788Z,16.40
2023-05-12T09:48:47.164Z,16.40
2023-05-12T09:51:17.214Z,16.30
2023-05-12T09:53:44.265Z,16.20
2023-05-12T09:56:12.487Z,16.10
2023-05-12T09:58:42.052Z,16.30
2023-05-12T10:01:21.428Z,16.50
2023-05-12T10:03:51.063Z,16.90
2023-05-12T10:06:38.027Z,16.60
2023-05-12T10:09:05.056Z,17.70
2023-05-12T10:11:32.263Z,18.10
2023-05-12T10:13:59.177Z,18.20
2023-05-12T10:16:27.938Z,18.40
2023-05-12T10:18:55.017Z,18.40
2023-05-12T10:21:21.930Z,18.30
2023-05-12T10:23:48.690Z,18.20
2023-05-12T10:26:16.380Z,18.20
2023-05-12T10:28:43.488Z,18.20
2023-05-12T10:31:10.297Z,18.10
2023-05-12T10:33:36.858Z,17.80
2023-05-12T10:36:04.069Z,17.60
2023-05-12T10:38:37.246Z,17.50
2023-05-12T10:41:05.680Z,17.40
2023-05-12T10:43:40.605Z,17.40
2023-05-12T10:46:08.048Z,17.50
2023-05-12T10:48:34.736Z,17.70
2023-05-12T10:51:12.813Z,17.80
2023-05-12T10:53:49.121Z,17.70
2023-05-12T10:56:25.255Z,17.60
2023-05-12T10:59:11.233Z,17.40
2023-05-12T11:01:39.331Z,17.30
2023-05-12T11:04:17.044Z,17.20
2023-05-12T11:06:45.027Z,17.10
2023-05-12T11:09:13.384Z,16.70
2023-05-12T11:11:40.568Z,16.60
2023-05-12T11:14:08.225Z,16.60
2023-05-12T11:16:41.647Z,16.50
2023-05-12T11:19:08.525Z,16.60
2023-05-12T11:21:35.381Z,16.70
2023-05-12T11:24:02.235Z,16.70
2023-05-12T11:26:29.612Z,16.80
2023-05-12T11:28:59.651Z,16.70
2023-05-12T11:31:26.281Z,16.70
2023-05-12T11:34:11.800Z,16.60
2023-05-12T11:36:43.639Z,16.60
2023-05-12T11:39:13.840Z,16.60
2023-05-12T11:41:40.432Z,16.50
2023-05-12T11:44:13.842Z,16.60
2023-05-12T11:46:41.124Z,16.60
2023-05-12T11:49:11.067Z,16.70
2023-05-12T11:51:41.540Z,17.00
2023-05-12T11:54:08.665Z,17.20
2023-05-12T11:56:35.209Z,17.30
2023-05-12T11:59:01.871Z,17.20
2023-05-12T12:01:28.394Z,16.80
2023-05-12T12:03:55.745Z,16.50
2023-05-12T12:06:23.127Z,16.20
2023-05-12T12:08:53.215Z,15.90
2023-05-12T12:11:21.424Z,15.70
2023-05-12T12:14:00.935Z,15.70
2023-05-12T12:16:28.115Z,15.70
2023-05-12T12:18:54.813Z,15.70
2023-05-12T12:21:22.317Z,15.70
2023-05-12T12:23:51.735Z,15.70
2023-05-12T12:26:21.526Z,15.80
2023-05-12T12:28:48.645Z,15.90
2023-05-12T12:31:15.969Z,16.00
2023-05-12T12:33:42.693Z,16.20
2023-05-12T12:36:10.580Z,16.30
2023-05-12T12:38:37.934Z,16.50
2023-05-12T12:41:05.200Z,16.80
2023-05-12T12:43:32.207Z,16.80
2023-05-12T12:45:58.824Z,16.80
2023-05-12T12:48:28.566Z,16.80
2023-05-12T12:50:55.456Z,16.90
2023-05-12T12:53:22.212Z,17.00
2023-05-12T12:55:48.897Z,17.10
2023-05-12T12:58:15.572Z,17.00
2023-05-12T13:00:42.232Z,17.40
2023-05-12T13:03:09.105Z,17.00
2023-05-12T13:05:35.719Z,16.90
2023-05-12T13:08:02.359Z,16.80
2023-05-12T13:10:29.259Z,16.70
2023-05-12T13:12:55.929Z,16.70
2023-05-12T13:15:23.081Z,16.40
2023-05-12T13:17:49.892Z,16.40
2023-05-12T13:20:16.794Z,16.30
2023-05-12T13:22:43.724Z,16.40
2023-05-12T13:25:11.095Z,16.30
2023-05-12T13:27:38.419Z,16.30
2023-05-12T13:30:07.158Z,16.30
2023-05-12T13:32:34.439Z,16.40
2023-05-12T13:35:01.570Z,16.40
2023-05-12T13:37:28.312Z,16.40
2023-05-12T13:39:55.304Z,16.50
2023-05-12T13:42:22.434Z,16.40
2023-05-12T13:44:49.283Z,16.50
2023-05-12T13:47:16.142Z,16.40
2023-05-12T13:49:42.747Z,16.40
2023-05-12T13:52:09.416Z,16.60
2023-05-12T13:54:36.003Z,16.50
2023-05-12T13:57:04.035Z,16.60
2023-05-12T13:59:31.083Z,16.60
2023-05-12T14:01:58.127Z,16.60
2023-05-12T14:04:24.934Z,16.60
2023-05-12T14:06:51.607Z,16.60
2023-05-12T14:09:18.638Z,16.50
2023-05-12T14:11:45.212Z,16.50
2023-05-12T14:14:11.881Z,16.50
2023-05-12T14:16:38.699Z,16.50
2023-05-12T14:19:05.582Z,16.60
2023-05-12T14:21:32.816Z,16.60
2023-05-12T14:23:59.393Z,16.70
2023-05-12T14:26:26.207Z,16.80
2023-05-12T14:28:52.902Z,16.70
2023-05-12T14:31:19.860Z,16.80
2023-05-12T14:33:46.608Z,17.40
2023-05-12T14:36:14.780Z,16.70
2023-05-12T14:38:41.395Z,16.80
2023-05-12T14:41:08.484Z,16.80
2023-05-12T14:43:35.349Z,17.00
2023-05-12T14:46:02.238Z,17.00
2023-05-12T14:48:29.221Z,17.20
2023-05-12T14:50:56.380Z,17.30
2023-05-12T14:53:23.586Z,17.40
2023-05-12T14:55:50.448Z,17.40
2023-05-12T14:58:21.796Z,17.60
2023-05-12T15:00:50.056Z,17.70
2023-05-12T15:03:16.973Z,17.60
2023-05-12T15:08:13.358Z,17.50
2023-05-12T15:10:39.968Z,17.40
2023-05-12T15:13:06.586Z,17.20
2023-05-12T15:15:33.578Z,16.90
2023-05-12T15:18:00.554Z,16.80
2023-05-12T15:20:27.148Z,16.50
2023-05-12T15:22:54.629Z,16.60
2023-05-12T15:25:21.425Z,16.60
2023-05-12T15:27:48.191Z,16.70
2023-05-12T15:30:14.919Z,16.80
2023-05-12T15:32:41.529Z,17.10
2023-05-12T15:35:10.704Z,17.00
2023-05-12T15:37:37.460Z,17.00
2023-05-12T15:40:04.355Z,17.20
2023-05-12T15:42:33.232Z,17.30
2023-05-12T15:45:00.233Z,17.20
2023-05-12T15:47:27.388Z,17.10
2023-05-12T15:49:54.364Z,16.90
2023-05-12T15:52:20.936Z,16.80
2023-05-12T15:54:47.516Z,16.80
2023-05-12T15:57:14.204Z,17.00
2023-05-12T15:59:40.776Z,17.10
2023-05-12T16:02:07.787Z,17.10
2023-05-12T16:04:34.361Z,17.50
2023-05-12T16:07:00.942Z,17.60
2023-05-12T16:09:27.600Z,17.70
2023-05-12T16:11:54.837Z,17.90
2023-05-12T16:14:22.050Z,18.10
2023-05-12T16:16:49.212Z,18.10
2023-05-12T16:19:16.017Z,17.90
2023-05-12T16:21:43.476Z,17.60
2023-05-12T16:24:10.593Z,17.40
2023-05-12T16:26:37.193Z,17.30
2023-05-12T16:29:03.804Z,17.20
2023-05-12T16:31:33.437Z,17.00
2023-05-12T16:33:59.988Z,17.00
2023-05-12T16:36:26.648Z,16.80
2023-05-12T16:38:53.579Z,16.80
2023-05-12T16:41:20.249Z,16.80
2023-05-12T16:43:47.650Z,16.70
2023-05-12T16:46:14.931Z,16.60
2023-05-12T16:48:41.574Z,16.60
2023-05-12T16:51:12.894Z,16.60
2023-05-12T16:53:42.133Z,17.00
2023-05-12T16:56:08.980Z,17.50
2023-05-12T16:58:35.650Z,17.50
2023-05-12T17:01:02.662Z,17.80
2023-05-12T17:03:30.889Z,17.90
2023-05-12T17:05:57.651Z,17.80
2023-05-12T17:08:24.970Z,17.60
2023-05-12T17:10:51.821Z,17.40
2023-05-12T17:13:18.443Z,17.10
2023-05-12T17:15:45.092Z,17.00
2023-05-12T17:18:12.908Z,16.70
2023-05-12T17:20:41.873Z,16.70
2023-05-12T17:23:09.122Z,16.70
2023-05-12T17:25:36.576Z,16.60
2023-05-12T17:28:04.387Z,16.40
2023-05-12T17:30:31.011Z,16.40
2023-05-12T17:32:57.682Z,16.30
2023-05-12T17:35:24.514Z,16.30
2023-05-12T17:37:52.427Z,16.20
2023-05-12T17:40:19.043Z,16.10
2023-05-12T17:42:45.696Z,16.40
2023-05-12T17:45:14.240Z,16.10
2023-05-12T17:47:41.022Z,16.00
2023-05-12T17:50:10.589Z,16.00
2023-05-12T17:52:38.861Z,16.00
2023-05-12T17:55:06.047Z,15.90
2023-05-12T17:57:33.070Z,15.80
2023-05-12T17:59:59.775Z,15.70
2023-05-12T18:02:26.377Z,15.70
2023-05-12T18:04:53.066Z,15.60
2023-05-12T18:07:20.232Z,15.60
2023-05-12T18:09:46.849Z,15.50
2023-05-12T18:12:14.035Z,15.40
2023-05-12T18:14:40.653Z,15.40
2023-05-12T18:17:07.313Z,15.40
2023-05-12T18:19:33.979Z,15.40
2023-05-12T18:22:00.551Z,15.20
2023-05-12T18:24:27.117Z,15.20
2023-05-12T18:26:53.712Z,15.10
2023-05-12T18:29:20.266Z,15.00
2023-05-12T18:31:47.084Z,14.90
2023-05-12T18:34:13.836Z,14.80
2023-05-12T18:36:41.503Z,14.80
2023-05-12T18:39:10.471Z,14.70
2023-05-12T18:41:38.884Z,14.70
2023-05-12T18:44:05.724Z,14.60
2023-05-12T18:46:32.358Z,14.50
2023-05-12T18:48:58.969Z,14.50
2023-05-12T18:51:25.589Z,14.50
2023-05-12T18:53:52.174Z,14.40
2023-05-12T18:56:19.138Z,14.30
2023-05-12T18:58:45.842Z,14.20
2023-05-12T19:01:12.997Z,14.20
2023-05-12T19:03:40.247Z,14.20
2023-05-12T19:06:06.831Z,14.00
2023-05-12T19:08:33.502Z,14.00
2023-05-12T19:11:00.051Z,13.90
2023-05-12T19:13:27.333Z,13.90
2023-05-12T19:15:53.962Z,13.80
2023-05-12T19:18:21.625Z,13.70
2023-05-12T19:20:48.274Z,13.70
2023-05-12T19:23:15.058Z,13.50
2023-05-12T19:25:43.440Z,13.50
2023-05-12T19:28:11.848Z,13.40
2023-05-12T19:30:38.468Z,13.40
2023-05-12T19:33:06.319Z,13.40
2023-05-12T19:35:34.155Z,13.30
2023-05-12T19:38:00.764Z,13.20
2023-05-12T19:40:27.346Z,13.20
2023-05-12T19:42:55.086Z,13.20
2023-05-12T19:45:21.936Z,13.10
2023-05-12T19:47:48.961Z,13.10
2023-05-12T19:50:15.808Z,14.50
2023-05-12T19:52:42.352Z,15.50
2023-05-12T19:55:09.199Z,15.90
2023-05-12T19:57:37.022Z,16.00
2023-05-12T20:00:04.501Z,16.20
2023-05-12T20:02:31.529Z,16.50
2023-05-12T20:05:01.521Z,16.70
2023-05-12T20:07:28.223Z,16.60
2023-05-12T20:09:55.004Z,16.50
2023-05-12T20:12:21.626Z,16.20
2023-05-12T20:14:48.265Z,16.20
2023-05-12T20:17:14.942Z,16.40
2023-05-12T20:19:41.640Z,16.30
2023-05-12T20:22:08.165Z,16.40
2023-05-12T20:24:34.740Z,16.50
2023-05-12T20:27:01.343Z,16.60
2023-05-12T20:29:29.757Z,16.60
2023-05-12T20:31:56.491Z,16.50
2023-05-12T20:34:23.073Z,16.60
2023-05-12T20:36:49.890Z,16.60
2023-05-12T20:39:16.503Z,15.60
2023-05-12T20:41:43.345Z,15.00
2023-05-12T20:44:10.327Z,14.40
2023-05-12T20:46:38.360Z,14.00
2023-05-12T20:49:05.636Z,13.60
2023-05-12T20:51:32.533Z,13.30
2023-05-12T20:53:59.255Z,13.10
2023-05-12T20:56:26.917Z,13.00
2023-05-12T20:58:53.702Z,12.80
2023-05-12T21:01:20.539Z,13.20
2023-05-12T21:03:47.211Z,12.60
2023-05-12T21:06:13.852Z,12.50
2023-05-12T21:08:40.427Z,12.50
2023-05-12T21:11:17.195Z,12.40
2023-05-12T21:13:49.615Z,12.30
2023-05-12T21:16:16.673Z,12.20
2023-05-12T21:18:43.596Z,12.20
2023-05-12T21:21:10.565Z,12.20
2023-05-12T21:23:37.828Z,12.10
2023-05-12T21:26:05.114Z,12.10
2023-05-12T21:28:31.824Z,12.00
2023-05-12T21:30:58.362Z,12.00
2023-05-12T21:33:24.949Z,12.00
2023-05-12T21:35:51.566Z,12.00
2023-05-12T21:38:18.188Z,11.90
2023-05-12T21:40:48.898Z,11.90
2023-05-12T21:43:15.577Z,11.90
2023-05-12T21:45:42.512Z,11.80
2023-05-12T21:48:09.100Z,11.80
2023-05-12T21:50:35.714Z,11.70
2023-05-12T21:53:02.340Z,11.70
2023-05-12T21:55:28.914Z,11.60
2023-05-12T21:57:55.463Z,11.50
2023-05-12T22:00:22.146Z,11.50
2023-05-12T22:02:49.109Z,11.50
2023-05-12T22:05:15.828Z,12.40
2023-05-12T22:07:42.412Z,11.50
2023-05-12T22:10:09.216Z,11.50
2023-05-12T22:12:35.855Z,11.50
2023-05-12T22:15:02.445Z,11.40
2023-05-12T22:17:29.259Z,11.40
2023-05-12T22:19:55.997Z,11.30
2023-05-12T22:22:22.612Z,11.30
2023-05-12T22:24:49.184Z,11.30
2023-05-12T22:27:21.085Z,11.30
2023-05-12T22:29:48.258Z,11.30
2023-05-12T22:32:15.030Z,11.30
2023-05-12T22:34:41.628Z,11.20
2023-05-12T22:37:08.249Z,11.20
2023-05-12T22:39:34.935Z,11.20
2023-05-12T22:42:03.050Z,11.20
2023-05-12T22:44:29.665Z,11.10
2023-05-12T22:46:56.491Z,11.10
2023-05-12T22:49:23.081Z,11.10
2023-05-12T22:51:49.706Z,11.00
2023-05-12T22:54:16.375Z,11.00
2023-05-12T22:56:43.096Z,11.00
2023-05-12T22:59:10.277Z,10.90
2023-05-12T23:01:36.878Z,10.90
2023-05-12T23:04:04.267Z,10.90
2023-05-12T23:06:31.164Z,10.90
2023-05-12T23:08:57.802Z,10.90
2023-05-12T23:11:24.530Z,10.90
2023-05-12T23:13:51.172Z,10.90
2023-05-12T23:16:17.875Z,10.90
2023-05-12T23:18:44.635Z,10.80
2023-05-12T23:21:11.381Z,10.80
2023-05-12T23:23:37.973Z,10.80
2023-05-12T23:26:04.867Z,10.70
2023-05-12T23:28:31.444Z,10.90
2023-05-12T23:30:58.202Z,10.70
2023-05-12T23:33:24.898Z,10.70
2023-05-12T23:35:51.544Z,10.60
2023-05-12T23:38:18.089Z,10.60
2023-05-12T23:40:44.687Z,10.60
2023-05-12T23:43:11.912Z,10.50
2023-05-12T23:45:38.498Z,10.60
2023-05-12T23:48:05.299Z,10.50
2023-05-12T23:50:32.089Z,10.50
2023-05-12T23:52:58.727Z,10.50
2023-05-12T23:55:25.471Z,10.40
2023-05-12T23:57:52.207Z,10.50
